sensor_id;sensor_type;location;lat;lon;timestamp;temperature;humidity
37786;DHT22;23625;48.784;9.336;2023-03-20T00:01:22;9.10;99.90
37786;DHT22;23625;48.784;9.336;2023-03-20T00:03:49;9.10;99.90
37786;DHT22;23625;48.784;9.336;2023-03-20T00:08:46;9.10;99.90
37786;DHT22;23625;48.784;9.336;2023-03-20T00:11:35;9.20;99.90
37786;DHT22;23625;48.784;9.336;2023-03-20T00:14:06;9.10;99.90
37786;DHT22;23625;48.784;9.336;2023-03-20T00:16:39;9.20;99.90
37786;DHT22;23625;48.784;9.336;2023-03-20T00:19:05;9.20;99.90
37786;DHT22;23625;48.784;9.336;2023-03-20T00:21:31;9.20;99.90
37786;DHT22;23625;48.784;9.336;2023-03-20T00:23:57;9.20;99.90
37786;DHT22;23625;48.784;9.336;2023-03-20T00:26:26;9.20;99.90
37786;DHT22;23625;48.784;9.336;2023-03-20T00:28:52;9.20;99.90
37786;DHT22;23625;48.784;9.336;2023-03-20T00:31:25;9.20;99.90
37786;DHT22;23625;48.784;9.336;2023-03-20T00:33:53;9.10;99.90
37786;DHT22;23625;48.784;9.336;2023-03-20T00:36:19;9.10;99.90
37786;DHT22;23625;48.784;9.336;2023-03-20T00:38:44;9.00;99.90
37786;DHT22;23625;48.784;9.336;2023-03-20T00:43:48;9.00;99.90
37786;DHT22;23625;48.784;9.336;2023-03-20T00:46:15;9.00;99.90
37786;DHT22;23625;48.784;9.336;2023-03-20T00:48:41;9.00;99.90
37786;DHT22;23625;48.784;9.336;2023-03-20T00:51:08;9.00;99.90
37786;DHT22;23625;48.784;9.336;2023-03-20T00:53:33;9.00;99.90
37786;DHT22;23625;48.784;9.336;2023-03-20T00:55:59;9.00;99.90
37786;DHT22;23625;48.784;9.336;2023-03-20T00:58:25;9.00;99.90
37786;DHT22;23625;48.784;9.336;2023-03-20T01:00:51;9.00;99.90
37786;DHT22;23625;48.784;9.336;2023-03-20T01:03:18;9.00;99.90
37786;DHT22;23625;48.784;9.336;2023-03-20T01:05:45;9.00;99.90
37786;DHT22;23625;48.784;9.336;2023-03-20T01:08:22;8.90;99.90
37786;DHT22;23625;48.784;9.336;2023-03-20T01:10:50;8.90;99.90
37786;DHT22;23625;48.784;9.336;2023-03-20T01:13:42;9.00;99.90
37786;DHT22;23625;48.784;9.336;2023-03-20T01:16:34;9.00;99.90
37786;DHT22;23625;48.784;9.336;2023-03-20T01:19:00;9.00;99.90
37786;DHT22;23625;48.784;9.336;2023-03-20T01:21:25;9.00;99.90
37786;DHT22;23625;48.784;9.336;2023-03-20T01:23:51;9.00;99.90
37786;DHT22;23625;48.784;9.336;2023-03-20T01:29:01;9.00;99.90
37786;DHT22;23625;48.784;9.336;2023-03-20T01:31:27;8.90;99.90
37786;DHT22;23625;48.784;9.336;2023-03-20T01:33:53;8.90;99.90
37786;DHT22;23625;48.784;9.336;2023-03-20T01:36:21;8.90;99.90
37786;DHT22;23625;48.784;9.336;2023-03-20T01:38:54;8.90;99.90
37786;DHT22;23625;48.784;9.336;2023-03-20T01:41:22;8.90;99.90
37786;DHT22;23625;48.784;9.336;2023-03-20T01:43:48;8.90;99.90
37786;DHT22;23625;48.784;9.336;2023-03-20T01:46:26;8.80;99.90
37786;DHT22;23625;48.784;9.336;2023-03-20T01:51:30;8.90;99.90
37786;DHT22;23625;48.784;9.336;2023-03-20T01:54:04;8.90;99.90
37786;DHT22;23625;48.784;9.336;2023-03-20T01:56:38;8.90;99.90
37786;DHT22;23625;48.784;9.336;2023-03-20T01:59:14;8.90;99.90
37786;DHT22;23625;48.784;9.336;2023-03-20T02:01:42;8.90;99.90
37786;DHT22;23625;48.784;9.336;2023-03-20T02:04:09;8.90;99.90
37786;DHT22;23625;48.784;9.336;2023-03-20T02:06:35;9.00;99.90
37786;DHT22;23625;48.784;9.336;2023-03-20T02:09:03;9.00;99.90
37786;DHT22;23625;48.784;9.336;2023-03-20T02:11:29;9.00;99.90
37786;DHT22;23625;48.784;9.336;2023-03-20T02:13:58;9.00;99.90
37786;DHT22;23625;48.784;9.336;2023-03-20T02:16:24;9.00;99.90
37786;DHT22;23625;48.784;9.336;2023-03-20T02:18:51;9.00;99.90
37786;DHT22;23625;48.784;9.336;2023-03-20T02:37:53;9.00;99.90
37786;DHT22;23625;48.784;9.336;2023-03-20T02:40:29;9.00;99.90
37786;DHT22;23625;48.784;9.336;2023-03-20T02:43:04;9.00;99.90
37786;DHT22;23625;48.784;9.336;2023-03-20T02:48:50;8.90;99.90
37786;DHT22;23625;48.784;9.336;2023-03-20T02:51:48;8.90;99.90
37786;DHT22;23625;48.784;9.336;2023-03-20T02:57:06;8.80;99.90
37786;DHT22;23625;48.784;9.336;2023-03-20T03:02:17;8.80;99.90
37786;DHT22;23625;48.784;9.336;2023-03-20T03:04:51;8.80;99.90
37786;DHT22;23625;48.784;9.336;2023-03-20T03:07:20;8.70;99.90
37786;DHT22;23625;48.784;9.336;2023-03-20T03:09:58;8.70;99.90
37786;DHT22;23625;48.784;9.336;2023-03-20T03:12:30;8.70;99.90
37786;DHT22;23625;48.784;9.336;2023-03-20T03:15:00;8.70;99.90
37786;DHT22;23625;48.784;9.336;2023-03-20T03:17:29;8.70;99.90
37786;DHT22;23625;48.784;9.336;2023-03-20T03:20:01;8.70;99.90
37786;DHT22;23625;48.784;9.336;2023-03-20T03:22:30;8.70;99.90
37786;DHT22;23625;48.784;9.336;2023-03-20T03:24:56;8.70;99.90
37786;DHT22;23625;48.784;9.336;2023-03-20T03:27:23;8.70;99.90
37786;DHT22;23625;48.784;9.336;2023-03-20T03:30:02;8.70;99.90
37786;DHT22;23625;48.784;9.336;2023-03-20T03:32:43;8.80;99.90
37786;DHT22;23625;48.784;9.336;2023-03-20T03:35:15;8.80;99.90
37786;DHT22;23625;48.784;9.336;2023-03-20T03:40:24;8.70;99.90
37786;DHT22;23625;48.784;9.336;2023-03-20T03:43:02;8.70;99.90
37786;DHT22;23625;48.784;9.336;2023-03-20T03:45:34;8.70;99.90
37786;DHT22;23625;48.784;9.336;2023-03-20T03:48:22;8.70;99.90
37786;DHT22;23625;48.784;9.336;2023-03-20T03:50:55;8.70;99.90
37786;DHT22;23625;48.784;9.336;2023-03-20T03:53:28;8.70;99.90
37786;DHT22;23625;48.784;9.336;2023-03-20T03:56:00;8.70;99.90
37786;DHT22;23625;48.784;9.336;2023-03-20T03:58:27;8.70;99.90
37786;DHT22;23625;48.784;9.336;2023-03-20T04:00:57;8.70;99.90
37786;DHT22;23625;48.784;9.336;2023-03-20T04:03:28;8.70;99.90
37786;DHT22;23625;48.784;9.336;2023-03-20T04:05:56;8.70;99.90
37786;DHT22;23625;48.784;9.336;2023-03-20T04:08:22;8.70;99.90
37786;DHT22;23625;48.784;9.336;2023-03-20T04:10:48;8.70;99.90
37786;DHT22;23625;48.784;9.336;2023-03-20T04:13:14;8.60;99.90
37786;DHT22;23625;48.784;9.336;2023-03-20T04:15:41;8.60;99.90
37786;DHT22;23625;48.784;9.336;2023-03-20T04:18:07;8.60;99.90
37786;DHT22;23625;48.784;9.336;2023-03-20T04:20:33;8.60;99.90
37786;DHT22;23625;48.784;9.336;2023-03-20T04:22:59;8.60;99.90
37786;DHT22;23625;48.784;9.336;2023-03-20T04:25:26;8.60;99.90
37786;DHT22;23625;48.784;9.336;2023-03-20T04:27:52;8.50;99.90
37786;DHT22;23625;48.784;9.336;2023-03-20T04:30:18;8.60;99.90
37786;DHT22;23625;48.784;9.336;2023-03-20T04:32:43;8.60;99.90
37786;DHT22;23625;48.784;9.336;2023-03-20T04:35:09;8.60;99.90
37786;DHT22;23625;48.784;9.336;2023-03-20T04:37:35;8.60;99.90
37786;DHT22;23625;48.784;9.336;2023-03-20T04:40:01;8.60;99.90
37786;DHT22;23625;48.784;9.336;2023-03-20T04:42:26;8.60;99.90
37786;DHT22;23625;48.784;9.336;2023-03-20T04:44:52;8.60;99.90
37786;DHT22;23625;48.784;9.336;2023-03-20T04:47:18;8.50;99.90
37786;DHT22;23625;48.784;9.336;2023-03-20T04:49:43;8.60;99.90
37786;DHT22;23625;48.784;9.336;2023-03-20T04:52:09;8.60;99.90
37786;DHT22;23625;48.784;9.336;2023-03-20T04:54:34;8.50;99.90
37786;DHT22;23625;48.784;9.336;2023-03-20T04:57:00;8.60;99.90
37786;DHT22;23625;48.784;9.336;2023-03-20T04:59:26;8.50;99.90
37786;DHT22;23625;48.784;9.336;2023-03-20T05:01:51;8.60;99.90
37786;DHT22;23625;48.784;9.336;2023-03-20T05:04:17;8.60;99.90
37786;DHT22;23625;48.784;9.336;2023-03-20T05:06:42;8.60;99.90
37786;DHT22;23625;48.784;9.336;2023-03-20T05:09:09;8.60;99.90
37786;DHT22;23625;48.784;9.336;2023-03-20T05:11:35;8.60;99.90
37786;DHT22;23625;48.784;9.336;2023-03-20T05:14:00;8.60;99.90
37786;DHT22;23625;48.784;9.336;2023-03-20T05:16:26;8.60;99.90
37786;DHT22;23625;48.784;9.336;2023-03-20T05:18:51;8.60;99.90
37786;DHT22;23625;48.784;9.336;2023-03-20T05:21:17;8.60;99.90
37786;DHT22;23625;48.784;9.336;2023-03-20T05:23:43;8.50;99.90
37786;DHT22;23625;48.784;9.336;2023-03-20T05:26:08;8.50;99.90
37786;DHT22;23625;48.784;9.336;2023-03-20T05:28:34;8.50;99.90
37786;DHT22;23625;48.784;9.336;2023-03-20T05:30:59;8.50;99.90
37786;DHT22;23625;48.784;9.336;2023-03-20T05:33:25;8.50;99.90
37786;DHT22;23625;48.784;9.336;2023-03-20T05:35:50;8.50;99.90
37786;DHT22;23625;48.784;9.336;2023-03-20T05:38:16;8.50;99.90
37786;DHT22;23625;48.784;9.336;2023-03-20T05:40:41;8.50;99.90
37786;DHT22;23625;48.784;9.336;2023-03-20T05:43:07;8.50;99.90
37786;DHT22;23625;48.784;9.336;2023-03-20T05:45:33;8.60;99.90
37786;DHT22;23625;48.784;9.336;2023-03-20T05:47:58;8.60;99.90
37786;DHT22;23625;48.784;9.336;2023-03-20T05:50:24;8.60;99.90
37786;DHT22;23625;48.784;9.336;2023-03-20T05:52:50;8.50;99.90
37786;DHT22;23625;48.784;9.336;2023-03-20T05:55:16;8.50;99.90
37786;DHT22;23625;48.784;9.336;2023-03-20T05:57:42;8.50;99.90
37786;DHT22;23625;48.784;9.336;2023-03-20T06:00:08;8.50;99.90
37786;DHT22;23625;48.784;9.336;2023-03-20T06:02:35;8.50;99.90
37786;DHT22;23625;48.784;9.336;2023-03-20T06:05:01;8.50;99.90
37786;DHT22;23625;48.784;9.336;2023-03-20T06:07:27;8.50;99.90
37786;DHT22;23625;48.784;9.336;2023-03-20T06:09:53;8.50;99.90
37786;DHT22;23625;48.784;9.336;2023-03-20T06:12:19;8.50;99.90
37786;DHT22;23625;48.784;9.336;2023-03-20T06:14:44;8.50;99.90
37786;DHT22;23625;48.784;9.336;2023-03-20T06:17:10;8.50;99.90
37786;DHT22;23625;48.784;9.336;2023-03-20T06:19:36;8.40;99.90
37786;DHT22;23625;48.784;9.336;2023-03-20T06:22:02;8.50;99.90
37786;DHT22;23625;48.784;9.336;2023-03-20T06:24:28;8.50;99.90
37786;DHT22;23625;48.784;9.336;2023-03-20T06:26:53;8.50;99.90
37786;DHT22;23625;48.784;9.336;2023-03-20T06:29:19;8.50;99.90
37786;DHT22;23625;48.784;9.336;2023-03-20T06:31:44;8.60;99.90
37786;DHT22;23625;48.784;9.336;2023-03-20T06:34:10;8.60;99.90
37786;DHT22;23625;48.784;9.336;2023-03-20T06:36:36;8.60;99.90
37786;DHT22;23625;48.784;9.336;2023-03-20T06:39:02;8.70;99.90
37786;DHT22;23625;48.784;9.336;2023-03-20T06:41:28;8.70;99.90
37786;DHT22;23625;48.784;9.336;2023-03-20T06:43:54;8.70;99.90
37786;DHT22;23625;48.784;9.336;2023-03-20T06:46:22;8.80;99.90
37786;DHT22;23625;48.784;9.336;2023-03-20T06:48:48;8.80;99.90
37786;DHT22;23625;48.784;9.336;2023-03-20T06:51:14;8.90;99.90
37786;DHT22;23625;48.784;9.336;2023-03-20T06:53:40;9.00;99.90
37786;DHT22;23625;48.784;9.336;2023-03-20T06:56:09;9.00;99.90
37786;DHT22;23625;48.784;9.336;2023-03-20T06:58:35;9.00;99.90
37786;DHT22;23625;48.784;9.336;2023-03-20T07:01:00;9.10;99.90
37786;DHT22;23625;48.784;9.336;2023-03-20T07:03:26;9.10;99.90
37786;DHT22;23625;48.784;9.336;2023-03-20T07:05:52;9.10;99.90
37786;DHT22;23625;48.784;9.336;2023-03-20T07:08:19;9.20;99.90
37786;DHT22;23625;48.784;9.336;2023-03-20T07:10:44;9.30;99.90
37786;DHT22;23625;48.784;9.336;2023-03-20T07:13:11;9.30;99.90
37786;DHT22;23625;48.784;9.336;2023-03-20T07:15:37;9.40;99.90
37786;DHT22;23625;48.784;9.336;2023-03-20T07:18:02;9.60;99.90
37786;DHT22;23625;48.784;9.336;2023-03-20T07:20:28;9.60;99.90
37786;DHT22;23625;48.784;9.336;2023-03-20T07:22:53;9.80;99.90
37786;DHT22;23625;48.784;9.336;2023-03-20T07:25:20;9.80;99.90
37786;DHT22;23625;48.784;9.336;2023-03-20T07:27:46;9.90;99.90
37786;DHT22;23625;48.784;9.336;2023-03-20T07:30:19;9.90;99.90
37786;DHT22;23625;48.784;9.336;2023-03-20T07:32:45;9.80;99.90
37786;DHT22;23625;48.784;9.336;2023-03-20T07:35:11;9.80;99.90
37786;DHT22;23625;48.784;9.336;2023-03-20T07:37:36;9.90;99.90
37786;DHT22;23625;48.784;9.336;2023-03-20T07:40:03;9.90;99.90
37786;DHT22;23625;48.784;9.336;2023-03-20T07:42:29;9.90;99.90
37786;DHT22;23625;48.784;9.336;2023-03-20T07:44:54;10.00;99.90
37786;DHT22;23625;48.784;9.336;2023-03-20T07:47:20;10.00;99.90
37786;DHT22;23625;48.784;9.336;2023-03-20T07:49:46;10.10;99.90
37786;DHT22;23625;48.784;9.336;2023-03-20T07:52:12;10.10;99.90
37786;DHT22;23625;48.784;9.336;2023-03-20T07:54:38;10.20;99.90
37786;DHT22;23625;48.784;9.336;2023-03-20T07:57:03;10.40;99.90
37786;DHT22;23625;48.784;9.336;2023-03-20T07:59:30;10.40;99.90
37786;DHT22;23625;48.784;9.336;2023-03-20T08:01:56;10.50;99.90
37786;DHT22;23625;48.784;9.336;2023-03-20T08:04:22;10.50;99.90
37786;DHT22;23625;48.784;9.336;2023-03-20T08:06:48;10.50;99.90
37786;DHT22;23625;48.784;9.336;2023-03-20T08:09:15;10.50;99.90
37786;DHT22;23625;48.784;9.336;2023-03-20T08:11:40;10.60;99.90
37786;DHT22;23625;48.784;9.336;2023-03-20T08:14:06;10.80;99.90
37786;DHT22;23625;48.784;9.336;2023-03-20T08:16:32;10.70;99.90
37786;DHT22;23625;48.784;9.336;2023-03-20T08:18:57;11.00;99.90
37786;DHT22;23625;48.784;9.336;2023-03-20T08:21:29;11.10;99.90
37786;DHT22;23625;48.784;9.336;2023-03-20T08:23:55;11.10;99.90
37786;DHT22;23625;48.784;9.336;2023-03-20T08:26:21;11.20;99.90
37786;DHT22;23625;48.784;9.336;2023-03-20T08:28:47;11.20;99.90
37786;DHT22;23625;48.784;9.336;2023-03-20T08:31:12;11.30;99.90
37786;DHT22;23625;48.784;9.336;2023-03-20T08:33:38;11.30;99.90
37786;DHT22;23625;48.784;9.336;2023-03-20T08:36:04;11.30;99.90
37786;DHT22;23625;48.784;9.336;2023-03-20T08:38:30;11.30;99.90
37786;DHT22;23625;48.784;9.336;2023-03-20T08:40:55;11.30;99.90
37786;DHT22;23625;48.784;9.336;2023-03-20T08:43:21;11.40;99.90
37786;DHT22;23625;48.784;9.336;2023-03-20T08:45:47;11.60;99.90
37786;DHT22;23625;48.784;9.336;2023-03-20T08:48:12;11.60;99.90
37786;DHT22;23625;48.784;9.336;2023-03-20T08:50:38;11.60;99.90
37786;DHT22;23625;48.784;9.336;2023-03-20T08:53:04;11.70;99.90
37786;DHT22;23625;48.784;9.336;2023-03-20T08:55:30;11.80;99.90
37786;DHT22;23625;48.784;9.336;2023-03-20T08:57:56;11.90;99.90
37786;DHT22;23625;48.784;9.336;2023-03-20T09:00:22;11.90;99.90
37786;DHT22;23625;48.784;9.336;2023-03-20T09:02:49;11.80;99.90
37786;DHT22;23625;48.784;9.336;2023-03-20T09:05:15;11.90;99.90
37786;DHT22;23625;48.784;9.336;2023-03-20T09:07:41;11.90;99.90
37786;DHT22;23625;48.784;9.336;2023-03-20T09:10:08;11.90;99.90
37786;DHT22;23625;48.784;9.336;2023-03-20T09:12:33;12.00;99.90
37786;DHT22;23625;48.784;9.336;2023-03-20T09:15:00;12.10;99.90
37786;DHT22;23625;48.784;9.336;2023-03-20T09:17:26;12.10;99.90
37786;DHT22;23625;48.784;9.336;2023-03-20T09:19:51;12.00;99.90
37786;DHT22;23625;48.784;9.336;2023-03-20T09:22:17;12.00;99.90
37786;DHT22;23625;48.784;9.336;2023-03-20T09:24:43;12.10;99.90
37786;DHT22;23625;48.784;9.336;2023-03-20T09:27:09;12.20;99.90
37786;DHT22;23625;48.784;9.336;2023-03-20T09:29:38;12.20;99.90
37786;DHT22;23625;48.784;9.336;2023-03-20T09:32:04;12.30;99.90
37786;DHT22;23625;48.784;9.336;2023-03-20T09:34:30;12.60;99.90
37786;DHT22;23625;48.784;9.336;2023-03-20T09:36:55;12.70;99.90
37786;DHT22;23625;48.784;9.336;2023-03-20T09:39:21;12.70;99.90
37786;DHT22;23625;48.784;9.336;2023-03-20T09:41:48;12.70;99.90
37786;DHT22;23625;48.784;9.336;2023-03-20T09:47:17;13.10;99.90
37786;DHT22;23625;48.784;9.336;2023-03-20T09:49:51;13.30;99.90
37786;DHT22;23625;48.784;9.336;2023-03-20T09:52:25;13.30;99.90
37786;DHT22;23625;48.784;9.336;2023-03-20T09:54:56;13.10;99.90
37786;DHT22;23625;48.784;9.336;2023-03-20T09:57:27;12.90;99.90
37786;DHT22;23625;48.784;9.336;2023-03-20T10:00:00;12.70;99.90
37786;DHT22;23625;48.784;9.336;2023-03-20T10:05:23;12.50;99.90
37786;DHT22;23625;48.784;9.336;2023-03-20T10:07:49;12.40;99.90
37786;DHT22;23625;48.784;9.336;2023-03-20T10:10:16;12.40;99.90
37786;DHT22;23625;48.784;9.336;2023-03-20T10:15:55;12.20;99.90
37786;DHT22;23625;48.784;9.336;2023-03-20T10:18:29;12.20;99.90
37786;DHT22;23625;48.784;9.336;2023-03-20T10:21:11;12.30;99.90
37786;DHT22;23625;48.784;9.336;2023-03-20T10:23:59;12.30;99.90
37786;DHT22;23625;48.784;9.336;2023-03-20T10:26:28;12.20;99.90
37786;DHT22;23625;48.784;9.336;2023-03-20T10:28:58;12.30;99.90
37786;DHT22;23625;48.784;9.336;2023-03-20T10:31:41;12.40;99.90
37786;DHT22;23625;48.784;9.336;2023-03-20T10:37:18;12.30;99.90
37786;DHT22;23625;48.784;9.336;2023-03-20T10:40:16;12.40;99.90
37786;DHT22;23625;48.784;9.336;2023-03-20T10:42:44;12.50;99.90
37786;DHT22;23625;48.784;9.336;2023-03-20T10:45:34;12.50;99.90
37786;DHT22;23625;48.784;9.336;2023-03-20T10:48:05;12.50;99.90
37786;DHT22;23625;48.784;9.336;2023-03-20T10:50:42;12.50;99.90
37786;DHT22;23625;48.784;9.336;2023-03-20T10:53:27;12.50;99.90
37786;DHT22;23625;48.784;9.336;2023-03-20T10:55:57;12.50;99.90
37786;DHT22;23625;48.784;9.336;2023-03-20T10:58:27;12.40;99.90
37786;DHT22;23625;48.784;9.336;2023-03-20T11:00:56;12.50;99.90
37786;DHT22;23625;48.784;9.336;2023-03-20T11:03:24;12.50;99.90
37786;DHT22;23625;48.784;9.336;2023-03-20T11:05:59;12.50;99.90
37786;DHT22;23625;48.784;9.336;2023-03-20T11:08:33;12.60;99.90
37786;DHT22;23625;48.784;9.336;2023-03-20T11:11:01;12.40;99.90
37786;DHT22;23625;48.784;9.336;2023-03-20T11:13:40;12.40;99.90
37786;DHT22;23625;48.784;9.336;2023-03-20T11:18:50;12.30;99.90
37786;DHT22;23625;48.784;9.336;2023-03-20T11:21:25;12.10;99.90
37786;DHT22;23625;48.784;9.336;2023-03-20T11:23:52;12.20;99.90
37786;DHT22;23625;48.784;9.336;2023-03-20T11:26:37;12.10;99.90
37786;DHT22;23625;48.784;9.336;2023-03-20T11:29:28;12.10;99.90
37786;DHT22;23625;48.784;9.336;2023-03-20T11:32:15;12.10;99.90
37786;DHT22;23625;48.784;9.336;2023-03-20T11:34:43;12.20;99.90
37786;DHT22;23625;48.784;9.336;2023-03-20T11:37:42;12.20;99.90
37786;DHT22;23625;48.784;9.336;2023-03-20T11:42:37;12.00;99.90
37786;DHT22;23625;48.784;9.336;2023-03-20T11:45:15;12.00;99.90
37786;DHT22;23625;48.784;9.336;2023-03-20T11:47:41;12.00;99.90
37786;DHT22;23625;48.784;9.336;2023-03-20T11:50:43;12.10;99.90
37786;DHT22;23625;48.784;9.336;2023-03-20T11:53:36;12.10;99.90
37786;DHT22;23625;48.784;9.336;2023-03-20T11:59:24;12.30;99.90
37786;DHT22;23625;48.784;9.336;2023-03-20T12:01:25;12.30;99.90
37786;DHT22;23625;48.784;9.336;2023-03-20T12:04:00;12.30;99.90
37786;DHT22;23625;48.784;9.336;2023-03-20T12:06:45;12.30;99.90
37786;DHT22;23625;48.784;9.336;2023-03-20T12:22:55;12.70;99.90
37786;DHT22;23625;48.784;9.336;2023-03-20T12:25:31;12.80;99.90
37786;DHT22;23625;48.784;9.336;2023-03-20T12:30:44;12.90;99.90
37786;DHT22;23625;48.784;9.336;2023-03-20T12:33:20;12.90;99.90
37786;DHT22;23625;48.784;9.336;2023-03-20T12:35:51;13.00;99.90
37786;DHT22;23625;48.784;9.336;2023-03-20T12:38:27;13.00;99.90
37786;DHT22;23625;48.784;9.336;2023-03-20T12:40:58;13.10;99.90
37786;DHT22;23625;48.784;9.336;2023-03-20T12:43:26;13.20;99.90
37786;DHT22;23625;48.784;9.336;2023-03-20T12:51:25;13.60;99.90
37786;DHT22;23625;48.784;9.336;2023-03-20T12:59:15;13.70;96.90
37786;DHT22;23625;48.784;9.336;2023-03-20T13:02:02;13.90;97.50
37786;DHT22;23625;48.784;9.336;2023-03-20T13:04:57;14.00;96.50
37786;DHT22;23625;48.784;9.336;2023-03-20T13:07:42;14.10;94.00
37786;DHT22;23625;48.784;9.336;2023-03-20T13:10:33;14.30;92.90
37786;DHT22;23625;48.784;9.336;2023-03-20T13:13:18;14.60;92.50
37786;DHT22;23625;48.784;9.336;2023-03-20T13:24:26;15.40;83.40
37786;DHT22;23625;48.784;9.336;2023-03-20T13:45:42;14.30;89.90
37786;DHT22;23625;48.784;9.336;2023-03-20T13:48:36;14.30;87.70
37786;DHT22;23625;48.784;9.336;2023-03-20T13:54:20;15.00;81.90
37786;DHT22;23625;48.784;9.336;2023-03-20T14:04:31;14.60;82.60
37786;DHT22;23625;48.784;9.336;2023-03-20T14:06:58;14.50;83.40
37786;DHT22;23625;48.784;9.336;2023-03-20T14:09:32;14.30;83.90
37786;DHT22;23625;48.784;9.336;2023-03-20T14:12:07;14.20;85.40
37786;DHT22;23625;48.784;9.336;2023-03-20T14:14:53;14.30;83.80
37786;DHT22;23625;48.784;9.336;2023-03-20T14:17:26;14.20;85.90
37786;DHT22;23625;48.784;9.336;2023-03-20T14:19:53;14.10;86.40
37786;DHT22;23625;48.784;9.336;2023-03-20T14:22:21;14.00;86.00
37786;DHT22;23625;48.784;9.336;2023-03-20T14:25:11;13.90;88.20
37786;DHT22;23625;48.784;9.336;2023-03-20T14:27:59;13.90;89.90
37786;DHT22;23625;48.784;9.336;2023-03-20T14:33:06;13.80;90.30
37786;DHT22;23625;48.784;9.336;2023-03-20T14:35:37;13.80;91.30
37786;DHT22;23625;48.784;9.336;2023-03-20T14:46:26;13.60;93.30
37786;DHT22;23625;48.784;9.336;2023-03-20T14:48:55;13.60;94.60
37786;DHT22;23625;48.784;9.336;2023-03-20T14:51:29;13.70;92.90
37786;DHT22;23625;48.784;9.336;2023-03-20T14:56:49;13.60;94.00
37786;DHT22;23625;48.784;9.336;2023-03-20T14:59:17;13.60;95.20
37786;DHT22;23625;48.784;9.336;2023-03-20T15:04:36;13.60;94.20
37786;DHT22;23625;48.784;9.336;2023-03-20T15:09:30;13.60;94.30
37786;DHT22;23625;48.784;9.336;2023-03-20T15:11:57;13.60;93.70
37786;DHT22;23625;48.784;9.336;2023-03-20T15:14:42;13.60;92.20
37786;DHT22;23625;48.784;9.336;2023-03-20T15:17:24;13.50;92.10
37786;DHT22;23625;48.784;9.336;2023-03-20T15:20:05;13.50;94.60
37786;DHT22;23625;48.784;9.336;2023-03-20T15:22:31;13.40;96.00
37786;DHT22;23625;48.784;9.336;2023-03-20T15:24:57;13.40;96.70
37786;DHT22;23625;48.784;9.336;2023-03-20T15:27:25;13.50;95.60
37786;DHT22;23625;48.784;9.336;2023-03-20T15:29:54;13.50;94.90
37786;DHT22;23625;48.784;9.336;2023-03-20T15:32:23;13.60;92.70
37786;DHT22;23625;48.784;9.336;2023-03-20T15:34:50;13.60;93.10
37786;DHT22;23625;48.784;9.336;2023-03-20T15:37:20;13.60;91.80
37786;DHT22;23625;48.784;9.336;2023-03-20T15:39:49;13.60;92.00
37786;DHT22;23625;48.784;9.336;2023-03-20T15:42:19;13.80;89.90
37786;DHT22;23625;48.784;9.336;2023-03-20T15:44:47;13.60;91.90
37786;DHT22;23625;48.784;9.336;2023-03-20T15:47:16;13.50;92.80
37786;DHT22;23625;48.784;9.336;2023-03-20T15:49:52;13.50;94.60
37786;DHT22;23625;48.784;9.336;2023-03-20T15:52:20;13.40;94.40
37786;DHT22;23625;48.784;9.336;2023-03-20T15:54:48;13.40;95.40
37786;DHT22;23625;48.784;9.336;2023-03-20T15:57:34;13.40;95.80
37786;DHT22;23625;48.784;9.336;2023-03-20T16:00:02;13.40;96.10
37786;DHT22;23625;48.784;9.336;2023-03-20T16:02:29;13.40;94.50
37786;DHT22;23625;48.784;9.336;2023-03-20T16:04:55;13.40;94.10
37786;DHT22;23625;48.784;9.336;2023-03-20T16:07:25;13.50;93.50
37786;DHT22;23625;48.784;9.336;2023-03-20T16:09:51;13.40;93.60
37786;DHT22;23625;48.784;9.336;2023-03-20T16:12:17;13.40;94.40
37786;DHT22;23625;48.784;9.336;2023-03-20T16:14:44;13.50;95.90
37786;DHT22;23625;48.784;9.336;2023-03-20T16:17:12;13.40;96.80
37786;DHT22;23625;48.784;9.336;2023-03-20T16:19:38;13.40;96.30
37786;DHT22;23625;48.784;9.336;2023-03-20T16:22:21;13.50;93.80
37786;DHT22;23625;48.784;9.336;2023-03-20T16:24:50;13.40;94.60
37786;DHT22;23625;48.784;9.336;2023-03-20T16:27:29;13.40;95.00
37786;DHT22;23625;48.784;9.336;2023-03-20T16:29:57;13.40;95.20
37786;DHT22;23625;48.784;9.336;2023-03-20T16:32:37;13.30;96.70
37786;DHT22;23625;48.784;9.336;2023-03-20T16:35:12;13.30;97.50
37786;DHT22;23625;48.784;9.336;2023-03-20T16:37:50;13.30;98.10
37786;DHT22;23625;48.784;9.336;2023-03-20T16:42:47;13.50;92.80
37786;DHT22;23625;48.784;9.336;2023-03-20T16:45:23;13.40;94.10
37786;DHT22;23625;48.784;9.336;2023-03-20T16:47:49;13.20;96.20
37786;DHT22;23625;48.784;9.336;2023-03-20T16:50:21;13.20;95.90
37786;DHT22;23625;48.784;9.336;2023-03-20T16:52:57;13.10;96.50
37786;DHT22;23625;48.784;9.336;2023-03-20T16:55:27;13.00;97.40
37786;DHT22;23625;48.784;9.336;2023-03-20T16:57:59;13.00;98.30
37786;DHT22;23625;48.784;9.336;2023-03-20T17:00:29;13.00;98.00
37786;DHT22;23625;48.784;9.336;2023-03-20T17:05:49;13.00;96.30
37786;DHT22;23625;48.784;9.336;2023-03-20T17:08:21;12.90;95.40
37786;DHT22;23625;48.784;9.336;2023-03-20T17:10:55;12.90;95.90
37786;DHT22;23625;48.784;9.336;2023-03-20T17:13:21;12.80;96.10
37786;DHT22;23625;48.784;9.336;2023-03-20T17:15:46;12.70;97.40
37786;DHT22;23625;48.784;9.336;2023-03-20T17:18:12;12.60;98.60
37786;DHT22;23625;48.784;9.336;2023-03-20T17:20:38;12.60;99.50
37786;DHT22;23625;48.784;9.336;2023-03-20T17:23:14;12.50;99.90
37786;DHT22;23625;48.784;9.336;2023-03-20T17:25:41;12.50;99.90
37786;DHT22;23625;48.784;9.336;2023-03-20T17:28:14;12.50;99.90
37786;DHT22;23625;48.784;9.336;2023-03-20T17:30:41;12.60;98.50
37786;DHT22;23625;48.784;9.336;2023-03-20T17:33:17;12.50;98.60
37786;DHT22;23625;48.784;9.336;2023-03-20T17:35:45;12.40;99.90
37786;DHT22;23625;48.784;9.336;2023-03-20T17:38:20;12.30;99.90
37786;DHT22;23625;48.784;9.336;2023-03-20T17:40:47;12.20;99.90
37786;DHT22;23625;48.784;9.336;2023-03-20T17:43:13;12.20;99.90
37786;DHT22;23625;48.784;9.336;2023-03-20T17:45:40;12.10;99.90
37786;DHT22;23625;48.784;9.336;2023-03-20T17:48:18;12.10;99.90
37786;DHT22;23625;48.784;9.336;2023-03-20T17:50:45;12.00;99.90
37786;DHT22;23625;48.784;9.336;2023-03-20T17:53:23;11.90;99.90
37786;DHT22;23625;48.784;9.336;2023-03-20T17:55:50;11.90;99.90
37786;DHT22;23625;48.784;9.336;2023-03-20T17:58:20;11.80;99.90
37786;DHT22;23625;48.784;9.336;2023-03-20T18:00:50;11.70;99.90
37786;DHT22;23625;48.784;9.336;2023-03-20T18:03:16;11.60;99.90
37786;DHT22;23625;48.784;9.336;2023-03-20T18:05:44;11.60;99.90
37786;DHT22;23625;48.784;9.336;2023-03-20T18:08:21;11.50;99.90
37786;DHT22;23625;48.784;9.336;2023-03-20T18:10:48;11.40;99.90
37786;DHT22;23625;48.784;9.336;2023-03-20T18:13:14;11.30;99.90
37786;DHT22;23625;48.784;9.336;2023-03-20T18:15:43;11.20;99.90
37786;DHT22;23625;48.784;9.336;2023-03-20T18:18:09;11.10;99.90
37786;DHT22;23625;48.784;9.336;2023-03-20T18:20:37;11.10;99.90
37786;DHT22;23625;48.784;9.336;2023-03-20T18:23:04;11.00;99.90